Time;durP1;ratioP1;P1;durP2;ratioP2;P2;SDS_P1;SDS_P2;PMS_P1;PMS_P2;Temp;Humidity;BMP_temperature;BMP_pressure;BME280_temperature;BME280_humidity;BME280_pressure;Samples;Min_cycle;Max_cycle;Signal;HPM_P1;HPM_P2
2022/11/05 00:09:31;;;;;;;10.18;8.45;;;22.30;99.90;;;;;;6230919;28;87155;-67
2022/11/05 00:19:09;;;;;;;11.43;8.75;;;22.20;99.90;;;;;;6226859;28;87052;-67
2022/11/05 00:25:31;;;;;;;12.95;8.13;;;22.30;99.90;;;;;;6211066;28;89878;-67
2022/11/05 00:28:34;;;;;;;12.48;8.95;;;22.30;99.90;;;;;;6212210;28;89116;-68
2022/11/05 00:31:36;;;;;;;10.75;8.73;;;22.30;99.90;;;;;;6221050;28;89189;-67
2022/11/05 00:34:40;;;;;;;11.57;9.40;;;22.30;99.90;;;;;;6213994;28;89239;-67
2022/11/05 00:37:42;;;;;;;12.68;8.75;;;22.20;99.90;;;;;;6219789;28;89197;-67
2022/11/05 00:40:45;;;;;;;12.82;9.15;;;22.20;99.90;;;;;;6222018;28;89664;-67
2022/11/05 00:50:24;;;;;;;13.88;8.50;;;22.20;99.90;;;;;;6221196;28;89487;-68
2022/11/05 00:53:26;;;;;;;11.80;8.40;;;22.20;99.90;;;;;;6220339;28;90322;-67
2022/11/05 00:56:28;;;;;;;15.90;9.30;;;22.20;99.90;;;;;;6223078;28;89149;-67
2022/11/05 00:59:30;;;;;;;12.88;9.02;;;22.10;99.90;;;;;;6223131;28;88499;-68
2022/11/05 01:02:32;;;;;;;12.55;8.77;;;22.10;99.90;;;;;;6220319;28;89082;-67
2022/11/05 01:05:39;;;;;;;13.25;9.02;;;22.10;99.90;;;;;;6224791;28;88251;-67
2022/11/05 01:08:43;;;;;;;11.45;8.98;;;22.20;99.90;;;;;;6224618;28;88107;-67
2022/11/05 01:11:45;;;;;;;13.80;8.90;;;22.10;99.90;;;;;;6219497;28;89404;-67
2022/11/05 01:14:47;;;;;;;11.82;8.80;;;22.20;99.90;;;;;;6231366;28;88589;-67
2022/11/05 01:17:50;;;;;;;12.02;8.65;;;22.10;99.90;;;;;;6213884;28;88570;-67
2022/11/05 01:20:53;;;;;;;11.07;8.52;;;22.10;99.90;;;;;;6218212;28;89535;-66
2022/11/05 01:23:55;;;;;;;10.95;8.68;;;22.10;99.90;;;;;;6221605;28;90227;-67
2022/11/05 01:26:58;;;;;;;10.63;8.73;;;22.10;99.90;;;;;;6217229;28;89380;-67
2022/11/05 01:30:00;;;;;;;12.00;9.13;;;22.10;99.90;;;;;;6223467;28;88953;-67
2022/11/05 01:33:03;;;;;;;13.60;9.18;;;22.10;99.90;;;;;;6222684;28;89247;-67
2022/11/05 01:36:07;;;;;;;12.27;9.23;;;22.10;99.90;;;;;;6226883;28;89125;-67
2022/11/05 01:39:09;;;;;;;10.93;9.00;;;22.10;99.90;;;;;;6217042;28;89393;-67
2022/11/05 01:42:19;;;;;;;13.93;8.88;;;22.10;99.90;;;;;;6225140;28;88014;-66
2022/11/05 01:45:23;;;;;;;13.02;9.32;;;22.10;99.90;;;;;;6230797;28;88457;-67
2022/11/05 01:48:30;;;;;;;12.90;8.82;;;22.00;99.90;;;;;;6216646;28;89406;-67
2022/11/05 01:51:34;;;;;;;11.35;9.02;;;22.10;99.90;;;;;;6217176;28;89265;-67
2022/11/05 01:54:36;;;;;;;13.65;9.70;;;22.10;99.90;;;;;;6225122;28;90122;-66
2022/11/05 01:57:38;;;;;;;11.65;9.30;;;22.10;99.90;;;;;;6228774;28;89404;-67
2022/11/05 02:00:42;;;;;;;16.58;9.80;;;22.00;99.90;;;;;;6220161;28;89165;-67
2022/11/05 02:03:45;;;;;;;11.32;9.60;;;22.00;99.90;;;;;;6210863;28;89312;-67
2022/11/05 02:06:48;;;;;;;12.77;9.05;;;22.00;99.90;;;;;;6228902;28;89370;-67
2022/11/05 02:09:56;;;;;;;11.13;9.52;;;22.00;99.90;;;;;;6228088;28;89104;-67
2022/11/05 02:12:58;;;;;;;10.68;8.98;;;22.00;99.90;;;;;;6226483;28;89661;-67
2022/11/05 02:16:07;;;;;;;13.02;9.52;;;22.00;99.90;;;;;;6230562;28;88495;-67
2022/11/05 02:19:35;;;;;;;10.20;9.10;;;22.00;99.90;;;;;;6228314;28;89194;-67
2022/11/05 02:23:15;;;;;;;10.70;9.55;;;22.00;99.90;;;;;;6228126;28;89156;-67
2022/11/05 02:26:44;;;;;;;9.90;8.85;;;22.00;99.90;;;;;;6181815;28;90074;-67
2022/11/05 02:30:24;;;;;;;10.93;9.25;;;22.00;99.90;;;;;;6230907;28;89227;-66
2022/11/05 02:33:35;;;;;;;12.68;9.65;;;22.00;99.90;;;;;;6219686;28;88243;-67
2022/11/05 02:36:46;;;;;;;12.10;9.82;;;22.00;99.90;;;;;;6230442;28;89243;-67
2022/11/05 02:39:56;;;;;;;11.68;9.38;;;21.90;99.90;;;;;;6222576;28;89144;-67
2022/11/05 02:43:05;;;;;;;12.48;8.95;;;22.00;99.90;;;;;;6230593;28;88078;-67
2022/11/05 02:46:15;;;;;;;11.70;9.90;;;21.90;99.90;;;;;;6227013;28;89396;-67
2022/11/05 02:49:28;;;;;;;12.48;9.48;;;22.00;99.90;;;;;;6230941;28;88710;-67
2022/11/05 02:52:37;;;;;;;10.98;9.13;;;22.00;99.90;;;;;;6223714;28;87767;-67
2022/11/05 02:55:45;;;;;;;11.50;9.73;;;21.90;99.90;;;;;;6228622;28;89296;-67
2022/11/05 02:58:47;;;;;;;11.85;9.35;;;21.90;99.90;;;;;;6209032;28;90052;-67
2022/11/05 03:01:52;;;;;;;10.27;9.18;;;21.90;99.90;;;;;;6210300;28;89100;-67
2022/11/05 03:04:55;;;;;;;10.38;8.90;;;21.90;99.90;;;;;;6231645;28;89780;-67
2022/11/05 03:08:04;;;;;;;12.05;9.52;;;22.00;99.90;;;;;;6220076;28;89042;-67
2022/11/05 03:11:13;;;;;;;13.02;9.85;;;21.90;99.90;;;;;;6215087;28;89654;-68
2022/11/05 03:14:23;;;;;;;11.55;9.35;;;21.90;99.90;;;;;;6221198;28;89610;-67
2022/11/05 03:17:34;;;;;;;11.18;9.60;;;21.90;99.90;;;;;;6242010;28;89357;-67
2022/11/05 03:20:42;;;;;;;11.13;9.20;;;21.90;99.90;;;;;;6254772;28;88593;-67
2022/11/05 03:23:49;;;;;;;10.18;9.05;;;21.90;99.90;;;;;;6257692;28;88064;-67
2022/11/05 03:26:56;;;;;;;9.35;8.23;;;21.90;99.90;;;;;;6256474;28;89518;-68
2022/11/05 03:30:02;;;;;;;10.45;9.27;;;21.90;99.90;;;;;;6257848;28;90019;-67
2022/11/05 03:33:11;;;;;;;9.85;8.65;;;21.80;99.90;;;;;;6240533;28;89213;-67
2022/11/05 03:36:19;;;;;;;9.95;8.95;;;21.90;99.90;;;;;;6249062;28;89325;-67
2022/11/05 03:39:28;;;;;;;11.48;9.40;;;21.90;99.90;;;;;;6241901;28;89117;-67
2022/11/05 03:42:33;;;;;;;12.55;9.38;;;21.90;99.90;;;;;;6237413;28;89449;-67
2022/11/05 03:45:41;;;;;;;10.93;9.45;;;21.90;99.90;;;;;;6257152;27;88654;-67
2022/11/05 03:48:49;;;;;;;11.07;8.98;;;21.90;99.90;;;;;;6255223;27;89137;-68
2022/11/05 03:51:55;;;;;;;9.88;8.55;;;21.90;99.90;;;;;;6234043;28;88336;-68
2022/11/05 03:54:57;;;;;;;10.27;9.18;;;21.90;99.90;;;;;;6240146;28;88467;-67
2022/11/05 03:57:59;;;;;;;10.02;9.02;;;21.90;99.90;;;;;;6257600;27;89368;-68
2022/11/05 04:01:02;;;;;;;9.65;8.65;;;21.90;99.90;;;;;;6245943;27;90256;-68
2022/11/05 04:04:06;;;;;;;10.00;8.75;;;21.80;99.90;;;;;;6245170;28;89257;-67
2022/11/05 04:14:02;;;;;;;9.50;8.30;;;21.80;99.90;;;;;;6210812;28;87492;-67
2022/11/05 04:17:08;;;;;;;9.50;8.30;;;21.80;99.90;;;;;;6237761;28;89150;-68
2022/11/05 04:26:50;;;;;;;9.48;8.48;;;21.80;99.90;;;;;;6237796;28;88973;-67
2022/11/05 04:33:13;;;;;;;9.05;8.15;;;21.80;99.90;;;;;;6253042;28;89334;-68
2022/11/05 04:36:18;;;;;;;8.82;7.93;;;21.80;99.90;;;;;;6242294;27;89609;-67
2022/11/05 04:39:21;;;;;;;11.18;8.65;;;21.80;99.90;;;;;;6252422;27;89088;-67
2022/11/05 04:42:23;;;;;;;13.32;9.32;;;21.80;99.90;;;;;;6246647;27;88898;-67
2022/11/05 04:45:26;;;;;;;8.73;7.82;;;21.80;99.90;;;;;;6250026;28;89216;-67
2022/11/05 04:48:28;;;;;;;9.35;8.20;;;21.80;99.90;;;;;;6243009;28;88031;-67
2022/11/05 04:51:32;;;;;;;9.00;7.93;;;21.80;99.90;;;;;;6242432;28;89045;-67
2022/11/05 04:54:34;;;;;;;9.15;8.20;;;21.90;99.90;;;;;;6249675;28;88350;-67
2022/11/05 04:57:36;;;;;;;9.80;8.68;;;21.90;99.90;;;;;;6232726;28;89271;-67
2022/11/05 05:00:38;;;;;;;13.20;9.80;;;21.90;99.90;;;;;;6245597;28;89745;-67
2022/11/05 05:03:40;;;;;;;9.63;8.15;;;21.90;99.90;;;;;;6243939;28;90134;-68
2022/11/05 05:06:44;;;;;;;9.52;8.52;;;21.90;99.90;;;;;;6252751;28;87986;-67
2022/11/05 05:09:46;;;;;;;8.80;7.90;;;21.90;99.90;;;;;;6239708;28;88701;-67
2022/11/05 05:12:48;;;;;;;9.43;8.10;;;21.90;99.90;;;;;;6237468;28;89574;-67
2022/11/05 05:15:50;;;;;;;9.02;8.13;;;21.90;99.90;;;;;;6243063;28;89073;-67
2022/11/05 05:18:53;;;;;;;9.57;8.57;;;21.90;99.90;;;;;;6251920;28;89207;-67
2022/11/05 05:21:55;;;;;;;8.75;7.85;;;22.00;99.90;;;;;;6254849;28;89526;-66
2022/11/05 05:24:58;;;;;;;8.63;7.72;;;22.00;99.90;;;;;;6247612;28;88664;-68
2022/11/05 05:28:00;;;;;;;9.40;8.35;;;22.00;99.90;;;;;;6237664;28;89498;-67
2022/11/05 05:31:02;;;;;;;10.35;8.98;;;22.00;99.90;;;;;;6250700;28;89744;-66
2022/11/05 05:34:05;;;;;;;9.10;8.18;;;22.00;99.90;;;;;;6253980;28;90046;-67
2022/11/05 05:37:09;;;;;;;9.88;7.93;;;22.00;99.90;;;;;;6243210;28;89341;-67
2022/11/05 05:40:11;;;;;;;9.32;8.25;;;22.00;99.90;;;;;;6248855;28;89631;-67
2022/11/05 05:43:13;;;;;;;8.25;7.45;;;22.00;99.90;;;;;;6240876;28;89596;-67
2022/11/05 05:46:18;;;;;;;9.18;8.27;;;21.90;99.90;;;;;;6238926;28;89058;-67
2022/11/05 05:49:20;;;;;;;8.30;7.50;;;22.00;99.90;;;;;;6230963;28;89307;-67
2022/11/05 05:52:23;;;;;;;9.02;8.13;;;22.00;99.90;;;;;;6248588;27;89109;-67
2022/11/05 05:55:25;;;;;;;8.90;8.00;;;22.00;99.90;;;;;;6237812;28;88504;-67
2022/11/05 05:58:32;;;;;;;8.70;7.80;;;21.90;99.90;;;;;;6252566;28;87957;-67
2022/11/05 06:01:34;;;;;;;8.65;7.78;;;21.90;99.90;;;;;;6240757;28;89182;-67
2022/11/05 06:04:36;;;;;;;8.45;7.60;;;21.90;99.90;;;;;;6252049;27;90071;-67
2022/11/05 06:07:39;;;;;;;8.73;7.82;;;21.90;99.90;;;;;;6239300;28;89202;-67
2022/11/05 06:10:41;;;;;;;9.05;8.15;;;21.90;99.90;;;;;;6242464;28;89096;-67
2022/11/05 06:13:43;;;;;;;9.85;7.90;;;21.90;99.90;;;;;;6249372;28;89142;-67
2022/11/05 06:16:45;;;;;;;8.55;7.57;;;21.90;99.90;;;;;;6250010;27;89126;-66
2022/11/05 06:19:47;;;;;;;8.18;7.38;;;21.90;99.90;;;;;;6252586;28;88235;-67
2022/11/05 06:22:56;;;;;;;8.68;7.78;;;21.90;99.90;;;;;;6242647;28;88141;-66
2022/11/05 06:26:01;;;;;;;8.43;7.53;;;21.90;99.90;;;;;;6248444;27;88563;-67
2022/11/05 06:29:03;;;;;;;8.05;7.25;;;21.90;99.90;;;;;;6241607;27;89606;-67
2022/11/05 06:32:05;;;;;;;8.00;7.20;;;21.90;99.90;;;;;;6239602;28;88070;-67
2022/11/05 06:35:08;;;;;;;8.73;7.82;;;21.90;99.90;;;;;;6239722;28;90259;-67
2022/11/05 06:38:11;;;;;;;8.95;7.88;;;21.90;99.90;;;;;;6258546;27;89603;-67
2022/11/05 06:41:13;;;;;;;8.80;7.63;;;21.90;99.90;;;;;;6244782;27;89314;-67
2022/11/05 06:44:15;;;;;;;8.15;7.35;;;21.90;99.90;;;;;;6252544;27;89320;-67
2022/11/05 06:47:17;;;;;;;8.25;7.45;;;21.90;99.90;;;;;;6252369;28;91000;-66
2022/11/05 06:50:19;;;;;;;7.30;6.60;;;21.90;99.90;;;;;;6241962;27;89423;-67
2022/11/05 06:53:23;;;;;;;8.63;7.25;;;21.90;99.90;;;;;;6248036;28;89171;-67
2022/11/05 06:56:25;;;;;;;8.25;7.45;;;21.90;99.90;;;;;;6243013;28;88994;-67
2022/11/05 06:59:27;;;;;;;8.00;7.10;;;22.00;99.90;;;;;;6249605;28;88565;-67
2022/11/05 07:02:29;;;;;;;7.40;6.70;;;22.00;99.90;;;;;;6244574;28;89184;-66
2022/11/05 07:05:31;;;;;;;7.78;7.00;;;22.00;99.90;;;;;;6244252;28;90266;-66
2022/11/05 07:08:36;;;;;;;7.78;7.00;;;22.00;99.90;;;;;;6241587;28;89674;-67
2022/11/05 07:11:38;;;;;;;8.05;7.25;;;22.00;99.90;;;;;;6249650;28;89654;-67
2022/11/05 07:14:40;;;;;;;7.82;7.03;;;22.00;99.90;;;;;;6244595;28;88029;-67
2022/11/05 07:17:42;;;;;;;7.63;6.82;;;22.00;99.90;;;;;;6241953;28;89141;-66
2022/11/05 07:20:44;;;;;;;7.68;6.80;;;22.00;99.90;;;;;;6243640;28;89082;-67
2022/11/05 07:23:48;;;;;;;7.43;6.72;;;22.00;99.90;;;;;;6235597;28;89357;-66
2022/11/05 07:26:50;;;;;;;7.53;6.82;;;22.10;99.90;;;;;;6243689;27;88402;-66
2022/11/05 07:29:52;;;;;;;8.15;7.35;;;22.00;99.90;;;;;;6245311;28;88038;-66
2022/11/05 07:32:54;;;;;;;7.40;6.43;;;22.00;99.90;;;;;;6252650;28;89554;-64
2022/11/05 07:35:56;;;;;;;7.70;6.88;;;22.10;99.90;;;;;;6243758;27;90515;-66
2022/11/05 07:39:00;;;;;;;8.57;7.47;;;22.10;99.90;;;;;;6238815;28;89149;-65
2022/11/05 07:42:02;;;;;;;9.00;6.97;;;22.10;99.90;;;;;;6253250;28;89319;-64
2022/11/05 07:45:04;;;;;;;7.13;6.43;;;22.20;99.90;;;;;;6251887;28;89150;-64
2022/11/05 07:48:07;;;;;;;7.20;6.50;;;22.20;99.90;;;;;;6244892;28;89256;-65
2022/11/05 07:51:10;;;;;;;7.47;6.68;;;22.20;99.90;;;;;;6247032;27;89313;-65
2022/11/05 07:54:13;;;;;;;7.80;6.93;;;22.20;99.90;;;;;;6239477;28;89076;-65
2022/11/05 07:57:15;;;;;;;9.88;6.28;;;22.20;99.90;;;;;;6236951;28;87319;-65
2022/11/05 08:00:20;;;;;;;6.85;6.15;;;22.30;99.90;;;;;;6243992;28;88168;-65
2022/11/05 08:03:22;;;;;;;7.15;6.30;;;22.20;99.90;;;;;;6250458;28;89077;-65
2022/11/05 08:06:24;;;;;;;5.85;5.25;;;22.20;99.90;;;;;;6253825;28;90103;-65
2022/11/05 08:09:27;;;;;;;6.90;5.45;;;22.30;99.90;;;;;;6248278;27;89540;-64
2022/11/05 08:12:30;;;;;;;6.43;5.35;;;22.30;99.30;;;;;;6254915;27;89234;-65
2022/11/05 08:15:32;;;;;;;6.13;5.53;;;22.30;98.70;;;;;;6236884;27;89018;-65
2022/11/05 08:18:34;;;;;;;5.97;5.28;;;22.30;98.60;;;;;;6241628;27;88527;-64
2022/11/05 08:21:36;;;;;;;5.70;5.20;;;22.20;98.60;;;;;;6246054;28;89213;-65
2022/11/05 08:24:40;;;;;;;6.00;5.25;;;22.20;98.60;;;;;;6257018;28;89598;-65
2022/11/05 08:27:42;;;;;;;5.88;5.28;;;22.20;98.60;;;;;;6256953;28;88724;-65
2022/11/05 08:30:44;;;;;;;5.78;5.18;;;22.20;98.70;;;;;;6239017;28;89433;-65
2022/11/05 08:33:46;;;;;;;5.88;5.28;;;22.20;98.70;;;;;;6248472;28;89244;-65
2022/11/05 08:36:48;;;;;;;6.25;5.45;;;22.20;98.80;;;;;;6252071;28;89266;-64
2022/11/05 08:39:51;;;;;;;7.20;5.40;;;22.20;98.80;;;;;;6248715;28;88168;-64
2022/11/05 08:42:53;;;;;;;7.25;5.65;;;22.20;98.90;;;;;;6252489;27;89128;-65
2022/11/05 08:45:55;;;;;;;6.25;5.65;;;22.20;99.10;;;;;;6250383;28;88932;-66
2022/11/05 08:48:57;;;;;;;6.70;5.72;;;22.20;99.20;;;;;;6248439;28;89332;-66
2022/11/05 08:51:59;;;;;;;7.20;6.07;;;22.20;99.60;;;;;;6241818;27;89196;-66
2022/11/05 08:55:02;;;;;;;9.18;5.95;;;22.20;99.90;;;;;;6235603;28;88055;-63
2022/11/05 08:58:08;;;;;;;7.18;6.18;;;22.20;99.90;;;;;;6242487;28;88360;-66
2022/11/05 09:01:10;;;;;;;8.70;6.20;;;22.20;99.90;;;;;;6241331;28;89127;-66
2022/11/05 09:04:12;;;;;;;8.70;6.53;;;22.20;99.90;;;;;;6235127;28;89666;-65
2022/11/05 09:07:14;;;;;;;8.90;6.25;;;22.20;99.90;;;;;;6232967;28;90164;-66
2022/11/05 09:10:18;;;;;;;6.40;5.65;;;22.20;99.90;;;;;;6240250;28;89496;-64
2022/11/05 09:13:20;;;;;;;7.47;5.60;;;22.30;99.90;;;;;;6236274;28;89245;-65
2022/11/05 09:16:25;;;;;;;7.88;5.90;;;22.30;99.90;;;;;;6246907;27;89198;-64
2022/11/05 09:19:27;;;;;;;17.60;11.65;;;22.30;99.90;;;;;;6248161;27;89272;-66
2022/11/05 09:22:29;;;;;;;57.08;33.63;;;22.40;99.90;;;;;;6243080;28;89209;-65
2022/11/05 09:25:33;;;;;;;30.85;17.02;;;22.30;99.90;;;;;;6249896;28;89494;-64
2022/11/05 09:28:34;;;;;;;19.00;11.48;;;22.40;99.90;;;;;;6237816;28;88632;-64
2022/11/05 09:31:36;;;;;;;16.13;10.32;;;22.40;99.90;;;;;;6241041;28;89061;-64
2022/11/05 09:34:39;;;;;;;16.00;9.43;;;22.50;99.90;;;;;;6250555;28;89291;-65
2022/11/05 09:37:41;;;;;;;12.27;9.07;;;22.50;99.90;;;;;;6253380;28;90225;-64
2022/11/05 09:40:52;;;;;;;14.82;8.70;;;22.50;99.90;;;;;;6247681;28;89324;-65
2022/11/05 09:43:58;;;;;;;15.50;9.18;;;22.50;99.90;;;;;;6254568;27;89467;-64
2022/11/05 09:47:05;;;;;;;15.55;8.20;;;22.50;99.90;;;;;;6241782;28;89170;-66
2022/11/05 09:50:12;;;;;;;11.73;7.90;;;22.50;99.90;;;;;;6237409;28;88747;-65
2022/11/05 09:53:18;;;;;;;10.95;7.57;;;22.50;99.90;;;;;;6243485;28;89298;-66
2022/11/05 09:56:26;;;;;;;10.65;7.15;;;22.50;99.90;;;;;;6235294;28;89442;-65
2022/11/05 09:59:35;;;;;;;10.25;7.13;;;22.60;99.90;;;;;;6237175;28;88304;-64
2022/11/05 10:02:43;;;;;;;13.52;7.55;;;22.50;99.90;;;;;;6237484;28;89273;-64
2022/11/05 10:05:47;;;;;;;13.27;7.30;;;22.50;99.90;;;;;;6238546;28;88057;-65
2022/11/05 10:08:54;;;;;;;13.65;7.40;;;22.50;99.90;;;;;;6242970;28;90048;-64
2022/11/05 10:12:05;;;;;;;10.02;6.68;;;22.50;99.50;;;;;;6246752;28;89269;-65
2022/11/05 10:15:13;;;;;;;10.05;6.10;;;22.50;98.20;;;;;;6242886;28;89096;-64
2022/11/05 10:18:21;;;;;;;10.13;5.90;;;22.50;97.40;;;;;;6236865;28;89124;-64
2022/11/05 10:21:23;;;;;;;11.02;6.20;;;22.50;96.60;;;;;;6239830;28;89308;-65
2022/11/05 10:24:27;;;;;;;11.10;5.60;;;22.50;95.80;;;;;;6243155;28;89228;-65
2022/11/05 10:27:35;;;;;;;9.23;5.30;;;22.50;95.30;;;;;;6242357;28;89144;-65
2022/11/05 10:30:37;;;;;;;8.60;5.30;;;22.50;94.90;;;;;;6234813;28;88491;-65
2022/11/05 10:33:43;;;;;;;9.18;5.13;;;22.50;94.80;;;;;;6236378;28;89086;-65
2022/11/05 10:36:45;;;;;;;10.95;6.22;;;22.50;95.40;;;;;;6248604;28;87952;-65
2022/11/05 10:39:48;;;;;;;16.92;7.00;;;22.50;96.10;;;;;;6245931;28;90182;-65
2022/11/05 10:43:00;;;;;;;17.58;7.32;;;22.50;96.60;;;;;;6236233;28;89270;-65
2022/11/05 10:46:12;;;;;;;17.88;7.38;;;22.50;97.40;;;;;;6238043;28;89195;-66
2022/11/05 10:49:24;;;;;;;16.67;7.18;;;22.50;97.90;;;;;;6240334;28;89297;-65
2022/11/05 10:52:31;;;;;;;15.82;6.90;;;22.50;98.50;;;;;;6244357;28;89117;-65
2022/11/05 10:55:36;;;;;;;15.23;6.85;;;22.50;99.10;;;;;;6243492;28;89195;-65
2022/11/05 10:58:54;;;;;;;12.48;5.97;;;22.50;99.00;;;;;;6238734;28;89230;-65
2022/11/05 11:02:00;;;;;;;15.68;6.28;;;22.50;99.20;;;;;;6244477;28;88332;-65
2022/11/05 11:05:02;;;;;;;16.75;6.45;;;22.60;99.10;;;;;;6245119;28;89645;-65
2022/11/05 11:08:24;;;;;;;12.82;6.10;;;22.60;99.30;;;;;;6243830;28;87972;-65
2022/11/05 11:11:29;;;;;;;14.73;7.18;;;22.60;99.60;;;;;;6237318;28;90314;-66
2022/11/05 11:14:33;;;;;;;16.25;7.30;;;22.60;99.90;;;;;;6235357;28;89246;-66
2022/11/05 11:17:35;;;;;;;14.85;6.07;;;22.70;99.90;;;;;;6245607;27;89083;-66
2022/11/05 11:20:44;;;;;;;12.68;5.97;;;22.70;99.90;;;;;;6238664;28;89182;-66
2022/11/05 11:23:55;;;;;;;12.63;6.10;;;22.90;99.90;;;;;;6256928;28;89196;-65
2022/11/05 11:27:03;;;;;;;12.10;5.78;;;23.00;99.90;;;;;;6247203;27;90805;-66
2022/11/05 11:30:16;;;;;;;10.15;5.35;;;23.00;99.90;;;;;;6248208;28;88796;-65
2022/11/05 11:33:23;;;;;;;8.10;4.85;;;23.00;99.90;;;;;;6239592;28;88625;-65
2022/11/05 11:36:31;;;;;;;10.40;5.00;;;22.90;99.40;;;;;;6239903;28;89091;-64
2022/11/05 11:39:33;;;;;;;8.82;4.63;;;22.90;99.30;;;;;;6251466;28;89036;-65
2022/11/05 11:42:40;;;;;;;9.73;4.80;;;22.80;99.90;;;;;;6243517;28;90193;-65
2022/11/05 11:45:49;;;;;;;12.43;4.78;;;22.70;99.90;;;;;;6252068;28;89632;-65
2022/11/05 11:48:52;;;;;;;8.98;4.97;;;22.70;99.90;;;;;;6243830;28;89284;-65
2022/11/05 11:51:59;;;;;;;7.07;4.43;;;22.70;99.90;;;;;;6247750;28;88857;-65
2022/11/05 11:55:19;;;;;;;9.90;4.75;;;22.70;99.90;;;;;;6251010;28;89216;-65
2022/11/05 11:58:22;;;;;;;9.20;4.78;;;22.70;99.90;;;;;;6250060;28;89132;-65
2022/11/05 12:02:14;;;;;;;9.43;4.80;;;22.70;99.90;;;;;;6240863;28;89659;-65
2022/11/05 12:05:37;;;;;;;8.73;4.60;;;22.70;99.90;;;;;;6228819;27;88574;-65
2022/11/05 12:08:47;;;;;;;8.00;4.50;;;22.70;99.90;;;;;;6241074;28;88176;-65
2022/11/05 12:11:59;;;;;;;7.93;4.53;;;22.70;99.90;;;;;;6234068;27;89134;-66
2022/11/05 12:15:14;;;;;;;7.10;4.35;;;22.70;99.90;;;;;;6249083;28;90505;-65
2022/11/05 12:18:25;;;;;;;7.03;4.32;;;22.70;99.90;;;;;;6233591;28;89097;-65
2022/11/05 12:21:36;;;;;;;6.97;4.03;;;22.70;99.90;;;;;;6252601;28;89388;-66
2022/11/05 12:25:11;;;;;;;7.47;4.15;;;22.70;99.90;;;;;;6256175;28;89634;-65
2022/11/05 12:28:44;;;;;;;8.00;3.92;;;22.70;99.90;;;;;;6245424;28;89890;-65
2022/11/05 12:31:58;;;;;;;6.57;4.03;;;22.70;99.90;;;;;;6234647;28;90574;-65
2022/11/05 12:35:10;;;;;;;6.65;4.40;;;22.70;99.90;;;;;;6245872;28;88014;-65
2022/11/05 12:38:22;;;;;;;9.93;4.50;;;22.70;99.90;;;;;;6231679;27;87483;-65
2022/11/05 12:41:29;;;;;;;9.45;4.32;;;22.70;99.90;;;;;;6251011;28;89173;-64
2022/11/05 12:44:50;;;;;;;8.88;4.00;;;22.70;99.90;;;;;;6240594;27;89057;-65
2022/11/05 12:48:05;;;;;;;7.43;3.67;;;22.70;99.90;;;;;;6242480;28;90327;-65
2022/11/05 12:51:23;;;;;;;8.57;4.18;;;22.70;99.90;;;;;;6255900;27;88250;-65
2022/11/05 12:54:39;;;;;;;8.68;4.50;;;22.80;99.90;;;;;;6243779;28;89061;-65
2022/11/05 12:57:43;;;;;;;8.13;4.13;;;22.70;99.90;;;;;;6236994;27;89388;-65
2022/11/05 13:00:51;;;;;;;6.03;3.92;;;22.80;99.90;;;;;;6244146;28;88151;-64
2022/11/05 13:03:58;;;;;;;9.65;4.20;;;22.80;99.90;;;;;;6244237;27;89163;-65
2022/11/05 13:07:06;;;;;;;8.73;3.95;;;22.80;99.90;;;;;;6250238;28;89143;-65
2022/11/05 13:10:20;;;;;;;8.60;4.05;;;22.70;99.90;;;;;;6247613;28;87362;-65
2022/11/05 13:13:29;;;;;;;6.97;4.03;;;22.70;99.90;;;;;;6252873;28;88717;-65
2022/11/05 13:16:35;;;;;;;10.13;3.95;;;22.70;99.90;;;;;;6246937;27;90004;-64
2022/11/05 13:19:43;;;;;;;8.48;3.88;;;22.70;99.90;;;;;;6250946;27;90005;-65
2022/11/05 13:22:52;;;;;;;7.40;3.80;;;22.70;99.90;;;;;;6244517;28;89055;-65
2022/11/05 13:26:00;;;;;;;8.43;4.00;;;22.70;99.90;;;;;;6254816;28;88105;-65
2022/11/05 13:29:06;;;;;;;8.52;3.95;;;22.70;99.90;;;;;;6249726;28;88013;-65
2022/11/05 13:32:26;;;;;;;10.43;4.10;;;22.70;99.90;;;;;;6248888;28;88132;-65
2022/11/05 13:35:34;;;;;;;9.55;4.25;;;22.70;99.90;;;;;;6236933;27;88505;-65
2022/11/05 13:38:58;;;;;;;8.77;3.95;;;22.80;99.90;;;;;;6247237;28;89212;-65
2022/11/05 13:42:17;;;;;;;7.70;3.95;;;22.70;99.90;;;;;;6253581;27;88365;-65
2022/11/05 13:46:06;;;;;;;7.43;3.95;;;22.80;99.90;;;;;;6254679;28;89119;-65
2022/11/05 13:49:34;;;;;;;9.85;4.22;;;22.70;99.90;;;;;;6117719;28;89103;-65
2022/11/05 13:52:54;;;;;;;7.10;3.90;;;22.70;99.90;;;;;;6230688;28;90208;-65
2022/11/05 13:56:10;;;;;;;11.98;4.28;;;22.80;99.90;;;;;;6252689;28;88970;-65
2022/11/05 13:59:39;;;;;;;6.55;3.92;;;22.70;99.90;;;;;;6242760;27;89131;-65
2022/11/05 14:02:45;;;;;;;6.82;4.00;;;22.80;99.90;;;;;;6241867;28;89096;-65
2022/11/05 14:05:55;;;;;;;7.30;3.72;;;22.70;99.90;;;;;;6254841;28;89794;-65
2022/11/05 14:09:02;;;;;;;7.28;4.22;;;22.70;99.90;;;;;;6245497;28;89231;-65
2022/11/05 14:12:16;;;;;;;7.10;3.83;;;22.70;99.90;;;;;;6252716;28;89202;-65
2022/11/05 14:15:21;;;;;;;6.95;4.05;;;22.70;99.90;;;;;;6241379;28;87520;-65
2022/11/05 14:18:41;;;;;;;8.38;3.88;;;22.80;99.90;;;;;;6255128;27;88120;-65
2022/11/05 14:21:48;;;;;;;6.20;3.95;;;22.70;99.90;;;;;;6244706;28;88162;-65
2022/11/05 14:24:50;;;;;;;7.35;4.20;;;22.70;99.90;;;;;;6254307;28;89144;-65
2022/11/05 14:27:54;;;;;;;7.90;3.88;;;22.70;99.90;;;;;;6247183;27;89453;-65
2022/11/05 14:30:56;;;;;;;6.53;3.92;;;22.70;99.90;;;;;;6237308;28;89458;-65
2022/11/05 14:34:16;;;;;;;7.43;3.88;;;22.70;99.90;;;;;;6244783;28;89179;-65
2022/11/05 14:37:35;;;;;;;6.35;3.83;;;22.70;99.90;;;;;;6252888;28;89401;-65
2022/11/05 14:40:41;;;;;;;4.72;3.50;;;22.70;99.90;;;;;;6255017;27;88038;-65
2022/11/05 14:43:48;;;;;;;4.80;3.45;;;22.70;99.90;;;;;;6239184;27;89105;-65
2022/11/05 14:46:53;;;;;;;5.65;3.50;;;22.70;99.90;;;;;;6239940;28;88536;-65
2022/11/05 14:50:01;;;;;;;4.63;3.40;;;22.70;99.90;;;;;;6254968;28;89120;-65
2022/11/05 14:53:22;;;;;;;6.13;3.70;;;22.70;99.90;;;;;;6234347;28;88072;-65
2022/11/05 14:56:24;;;;;;;5.38;3.50;;;22.70;99.90;;;;;;6251431;28;90302;-65
2022/11/05 14:59:53;;;;;;;5.45;3.72;;;22.70;99.90;;;;;;6255297;28;89392;-65
2022/11/05 15:02:58;;;;;;;5.28;3.50;;;22.70;99.90;;;;;;6230452;28;89107;-65
2022/11/05 15:06:23;;;;;;;4.60;3.78;;;22.70;99.90;;;;;;6258851;28;89650;-65
2022/11/05 15:09:33;;;;;;;5.47;3.63;;;22.70;99.90;;;;;;6234106;27;89761;-65
2022/11/05 15:12:39;;;;;;;4.35;3.28;;;22.70;99.90;;;;;;6258630;28;89253;-66
2022/11/05 15:15:47;;;;;;;4.53;3.45;;;22.70;99.90;;;;;;6246550;28;89242;-65
2022/11/05 15:18:52;;;;;;;4.50;3.33;;;22.60;99.90;;;;;;6235871;27;89327;-65
2022/11/05 15:21:58;;;;;;;4.57;3.40;;;22.70;99.90;;;;;;6251001;28;88728;-65
2022/11/05 15:25:01;;;;;;;4.88;3.88;;;22.70;99.90;;;;;;6228082;28;89116;-66
2022/11/05 15:28:06;;;;;;;4.85;3.42;;;22.70;99.90;;;;;;6240868;28;90074;-65
2022/11/05 15:31:34;;;;;;;4.78;3.30;;;22.70;99.90;;;;;;6251086;27;89013;-65
2022/11/05 15:34:36;;;;;;;5.00;3.30;;;22.60;99.90;;;;;;6246898;28;88002;-66
2022/11/05 15:37:46;;;;;;;5.35;3.47;;;22.70;99.90;;;;;;6255454;27;89095;-65
2022/11/05 15:40:57;;;;;;;4.35;3.35;;;22.60;99.90;;;;;;6256607;27;89221;-66
2022/11/05 15:44:02;;;;;;;5.03;3.45;;;22.60;99.90;;;;;;6249750;27;88744;-66
2022/11/05 15:47:23;;;;;;;5.57;3.30;;;22.60;99.90;;;;;;6251718;28;88678;-65
2022/11/05 15:50:26;;;;;;;5.18;3.50;;;22.70;99.90;;;;;;6253022;28;88595;-64
2022/11/05 15:53:38;;;;;;;5.97;3.58;;;22.60;99.90;;;;;;6245403;28;89352;-66
2022/11/05 15:56:48;;;;;;;6.30;3.60;;;22.60;99.90;;;;;;6252199;28;88568;-65
2022/11/05 15:59:50;;;;;;;5.97;3.30;;;22.70;99.90;;;;;;6238697;28;90291;-66
2022/11/05 16:02:57;;;;;;;7.03;3.35;;;22.70;99.90;;;;;;6244279;28;89407;-66
2022/11/05 16:06:01;;;;;;;7.47;3.30;;;22.60;99.90;;;;;;6241764;28;89346;-66
2022/11/05 16:09:03;;;;;;;4.07;3.40;;;22.60;99.90;;;;;;6237671;28;89158;-65
2022/11/05 16:12:13;;;;;;;6.28;3.40;;;22.70;99.90;;;;;;6245495;28;89364;-66
2022/11/05 16:15:22;;;;;;;5.53;3.35;;;22.70;99.90;;;;;;6249083;28;89196;-65
2022/11/05 16:18:31;;;;;;;6.47;3.40;;;22.70;99.90;;;;;;6254513;27;89193;-65
2022/11/05 16:21:53;;;;;;;6.97;3.38;;;22.60;99.90;;;;;;6242084;28;87412;-65
2022/11/05 16:24:56;;;;;;;5.50;3.30;;;22.60;99.90;;;;;;6256952;27;88014;-65
2022/11/05 16:27:59;;;;;;;6.95;3.40;;;22.60;99.90;;;;;;6255294;27;87992;-65
2022/11/05 16:31:03;;;;;;;5.03;3.22;;;22.70;99.90;;;;;;6243200;28;90591;-65
2022/11/05 16:34:20;;;;;;;7.13;2.90;;;22.70;99.90;;;;;;6250289;27;89125;-65
2022/11/05 16:37:24;;;;;;;4.05;2.80;;;22.70;99.90;;;;;;6251915;28;88241;-65
2022/11/05 16:40:28;;;;;;;4.22;2.92;;;22.70;99.90;;;;;;6254719;28;89407;-65
2022/11/05 16:43:31;;;;;;;3.90;3.05;;;22.70;99.90;;;;;;6255302;28;88308;-65
2022/11/05 16:46:33;;;;;;;5.45;3.40;;;22.70;99.90;;;;;;6254906;27;87746;-64
2022/11/05 16:49:37;;;;;;;8.05;3.58;;;22.70;99.90;;;;;;6256732;28;89244;-66